Time;durP1;ratioP1;P1;durP2;ratioP2;P2;SDS_P1;SDS_P2;PMS_P1;PMS_P2;Temp;Humidity;BMP_temperature;BMP_pressure;BME280_temperature;BME280_humidity;BME280_pressure;Samples;Min_cycle;Max_cycle;Signal;HPM_P1;HPM_P2
2022/11/20 00:01:25;;;;;;;;;8.67;8.33;;;;;10.83;58.31;100906.00;5098238;27;45339;-71
2022/11/20 00:03:53;;;;;;;;;5.00;5.00;;;;;11.32;58.69;100998.06;5097480;27;46440;-71
2022/11/20 00:06:20;;;;;;;;;7.00;5.67;;;;;10.30;58.41;100832.00;5101238;27;45553;-72
2022/11/20 00:08:46;;;;;;;;;5.67;5.33;;;;;10.51;58.43;100874.38;5119083;27;45193;-70
2022/11/20 00:11:14;;;;;;;;;10.67;8.00;;;;;10.86;58.68;100942.94;5118379;27;45186;-70
2022/11/20 00:13:39;;;;;;;;;5.33;5.33;;;;;11.23;58.47;101001.59;5118197;27;45665;-70
2022/11/20 00:16:06;;;;;;;;;7.33;6.00;;;;;10.87;58.80;100973.88;5117881;27;45610;-71
2022/11/20 00:18:35;;;;;;;;;6.00;6.00;;;;;10.76;58.77;100939.44;5090307;27;45623;-71
2022/11/20 00:21:06;;;;;;;;;9.67;8.33;;;;;11.15;58.87;101004.94;5097268;27;45276;-70
2022/11/20 00:23:31;;;;;;;;;8.00;7.00;;;;;10.34;59.00;100875.91;5081409;27;47692;-71
2022/11/20 00:26:04;;;;;;;;;5.00;5.00;;;;;10.66;58.99;100934.97;5082181;27;45414;-71
2022/11/20 00:28:30;;;;;;;;;8.33;8.00;;;;;10.96;58.62;101000.47;5100743;27;45370;-72
2022/11/20 00:31:12;;;;;;;;;6.00;6.00;;;;;10.95;58.86;101003.25;5100543;27;45452;-71
2022/11/20 00:33:38;;;;;;;;;7.00;7.00;;;;;11.00;58.69;101006.34;5081694;27;48445;-71
2022/11/20 00:36:06;;;;;;;;;5.33;5.00;;;;;10.47;58.73;100934.13;5101643;27;45242;-72
2022/11/20 00:38:32;;;;;;;;;6.67;5.33;;;;;10.96;58.92;101011.09;5121614;27;45233;-72
2022/11/20 00:40:59;;;;;;;;;7.00;6.00;;;;;9.97;59.11;100849.13;5121569;27;45340;-72
2022/11/20 00:43:26;;;;;;;;;5.00;5.00;;;;;10.90;59.02;101016.16;5102140;27;48164;-71
2022/11/20 00:46:03;;;;;;;;;6.33;5.00;;;;;10.56;58.99;100965.16;5102227;27;45268;-71
2022/11/20 00:48:29;;;;;;;;;6.33;6.00;;;;;10.70;59.17;100982.53;5102358;27;45370;-70
2022/11/20 00:50:55;;;;;;;;;9.00;8.00;;;;;10.82;59.17;101014.19;5121428;27;45691;-71
2022/11/20 00:53:21;;;;;;;;;8.33;6.00;;;;;10.86;58.84;101010.28;5120700;27;46474;-70
2022/11/20 00:55:58;;;;;;;;;8.67;8.00;;;;;10.85;59.22;101007.75;5120903;27;45476;-70
2022/11/20 00:58:25;;;;;;;;;8.33;6.67;;;;;10.49;59.26;100961.41;5120850;27;45299;-71
2022/11/20 01:00:50;;;;;;;;;11.00;6.67;;;;;10.71;59.40;101010.81;5121141;27;45199;-71
2022/11/20 01:03:17;;;;;;;;;6.67;5.00;;;;;10.75;59.27;101012.22;5120288;27;45299;-70
2022/11/20 01:05:43;;;;;;;;;7.00;6.00;;;;;10.72;59.06;101015.16;5120635;27;45302;-71
2022/11/20 01:08:08;;;;;;;;;5.67;4.00;;;;;10.66;58.98;101013.91;5101450;27;45736;-71
2022/11/20 01:10:34;;;;;;;;;5.33;5.33;;;;;10.30;59.15;100970.16;5100233;27;45549;-70
2022/11/20 01:15:43;;;;;;;;;3.33;2.33;;;;;9.85;59.52;100890.06;5112027;27;45493;-70
2022/11/20 01:18:08;;;;;;;;;4.67;4.67;;;;;10.58;59.58;101011.91;5120322;27;45709;-72
2022/11/20 01:20:35;;;;;;;;;9.00;6.00;;;;;10.50;59.32;101000.28;5121180;27;45482;-70
2022/11/20 01:23:02;;;;;;;;;7.00;5.67;;;;;9.75;59.02;100879.41;5120473;27;46000;-72
2022/11/20 01:25:27;;;;;;;;;5.00;5.00;;;;;10.41;59.07;101001.97;5120218;27;45225;-70
2022/11/20 01:27:53;;;;;;;;;5.00;5.00;;;;;10.50;59.33;101024.22;5120288;27;45545;-69
2022/11/20 01:30:18;;;;;;;;;5.00;5.00;;;;;9.45;59.19;100851.94;5120238;27;45445;-69
2022/11/20 01:32:43;;;;;;;;;4.67;4.67;;;;;10.41;59.36;101014.38;5101482;27;47571;-72
2022/11/20 01:35:10;;;;;;;;;5.00;3.67;;;;;10.25;59.41;100991.00;5119515;27;45422;-70
2022/11/20 01:37:35;;;;;;;;;5.00;5.00;;;;;10.36;59.67;101006.81;5113967;27;45559;-70
2022/11/20 01:40:00;;;;;;;;;7.00;5.00;;;;;10.30;59.57;101018.00;5119881;27;45397;-71
2022/11/20 01:45:50;;;;;;;;;5.00;5.00;;;;;10.29;59.59;101005.69;5117583;27;45526;-70
2022/11/20 01:48:17;;;;;;;;;6.00;4.67;;;;;10.27;59.26;101019.13;5117910;27;45476;-69
2022/11/20 01:50:43;;;;;;;;;9.33;6.33;;;;;10.16;59.55;100994.44;5117482;27;45437;-70
2022/11/20 01:53:13;;;;;;;;;6.33;6.33;;;;;10.12;59.89;101001.00;5118282;27;45589;-70
2022/11/20 01:55:49;;;;;;;;;3.00;3.00;;;;;10.14;59.98;100996.38;5119543;27;45589;-70
2022/11/20 01:58:16;;;;;;;;;6.67;5.00;;;;;9.85;60.28;100944.00;5120040;27;45424;-69
2022/11/20 02:00:42;;;;;;;;;3.33;3.33;;;;;9.58;60.00;100915.38;5119941;27;45193;-70
2022/11/20 02:03:13;;;;;;;;;3.00;3.00;;;;;10.05;60.13;100990.91;5119553;27;46489;-71
2022/11/20 02:05:50;;;;;;;;;4.00;4.00;;;;;10.10;60.27;101008.25;5101008;27;45570;-72
2022/11/20 02:08:17;;;;;;;;;3.00;2.00;;;;;9.54;60.60;100927.25;5080399;27;45329;-71
2022/11/20 02:10:42;;;;;;;;;5.00;3.00;;;;;9.93;60.25;100983.16;5099066;27;45465;-71
2022/11/20 02:15:52;;;;;;;;;5.33;3.33;;;;;9.58;60.36;100936.63;5098869;27;45177;-70
2022/11/20 02:18:20;;;;;;;;;4.00;3.00;;;;;9.95;60.82;101003.31;5098961;27;45478;-70
2022/11/20 02:20:49;;;;;;;;;9.33;6.33;;;;;9.01;61.06;100831.91;5098997;27;45498;-70
2022/11/20 02:23:32;;;;;;;;;6.67;4.00;;;;;9.73;60.86;100955.69;5098595;27;46073;-69
2022/11/20 02:26:01;;;;;;;;;3.00;3.00;;;;;9.91;60.76;100971.84;5098508;27;45409;-71
2022/11/20 02:28:27;;;;;;;;;6.00;2.00;;;;;9.19;60.62;100856.00;5098391;27;45289;-70
2022/11/20 02:30:52;;;;;;;;;5.00;5.00;;;;;9.86;60.75;100976.72;5098452;27;45216;-71
2022/11/20 02:33:18;;;;;;;;;4.00;3.00;;;;;9.90;61.02;100988.75;5098418;27;46405;-70
2022/11/20 02:35:46;;;;;;;;;4.00;3.33;;;;;9.93;60.76;101005.25;5098520;27;45493;-69
2022/11/20 02:38:12;;;;;;;;;5.00;4.00;;;;;9.95;60.91;100984.72;5098736;27;45282;-69
2022/11/20 02:40:38;;;;;;;;;5.00;3.00;;;;;7.84;60.36;100628.16;5099047;27;45374;-68
2022/11/20 02:43:03;;;;;;;;;6.33;4.00;;;;;9.55;60.60;100904.19;5079919;27;47293;-71
2022/11/20 02:45:29;;;;;;;;;4.33;3.00;;;;;9.95;60.24;100971.44;5097422;27;45261;-69
2022/11/20 02:47:54;;;;;;;;;1.00;1.00;;;;;9.48;60.32;100895.94;5098575;27;45496;-69
2022/11/20 02:50:20;;;;;;;;;3.00;3.00;;;;;9.57;60.36;100903.09;5098356;27;45339;-70
2022/11/20 02:52:45;;;;;;;;;4.33;4.33;;;;;9.47;60.05;100910.19;5098375;27;46060;-70
2022/11/20 02:55:11;;;;;;;;;5.00;2.00;;;;;9.84;60.30;100945.00;5098502;27;45449;-70
2022/11/20 02:57:36;;;;;;;;;6.00;4.67;;;;;9.64;60.30;100909.56;5098266;27;45229;-71
2022/11/20 03:00:03;;;;;;;;;3.00;2.00;;;;;9.64;60.14;100906.06;5098292;27;45209;-71
2022/11/20 03:02:33;;;;;;;;;2.67;2.67;;;;;9.88;60.06;100951.72;5098002;27;46561;-69
2022/11/20 03:04:58;;;;;;;;;2.00;2.00;;;;;9.81;60.30;100926.69;5097964;27;45414;-70
2022/11/20 03:07:24;;;;;;;;;3.00;3.00;;;;;9.50;60.33;100877.22;5079641;27;45506;-70
2022/11/20 03:09:49;;;;;;;;;2.00;2.00;;;;;9.89;60.53;100934.78;5098176;27;45280;-71
2022/11/20 03:12:14;;;;;;;;;3.00;2.00;;;;;9.88;60.82;100925.16;5097972;27;45461;-72
2022/11/20 03:14:40;;;;;;;;;2.00;2.00;;;;;9.76;61.29;100928.88;5097883;27;45470;-69
2022/11/20 03:17:05;;;;;;;;;5.33;3.00;;;;;9.28;60.93;100839.28;5097839;27;45479;-72
2022/11/20 03:19:31;;;;;;;;;5.67;3.00;;;;;9.01;61.21;100800.09;5098229;27;45157;-69
2022/11/20 03:21:56;;;;;;;;;2.00;0.67;;;;;9.65;61.42;100897.97;5097849;27;46763;-71
2022/11/20 03:24:21;;;;;;;;;2.00;2.00;;;;;9.68;61.37;100910.97;5099774;27;45218;-71
2022/11/20 03:26:47;;;;;;;;;5.00;3.00;;;;;9.28;61.15;100841.94;5079449;27;45521;-68
2022/11/20 03:29:12;;;;;;;;;6.67;4.00;;;;;8.53;61.91;100730.91;5092855;27;45605;-70
2022/11/20 03:31:40;;;;;;;;;2.00;2.00;;;;;9.51;61.47;100873.59;5118247;27;45300;-69
2022/11/20 03:34:07;;;;;;;;;2.67;2.67;;;;;9.64;61.82;100914.03;5118103;27;45534;-70
2022/11/20 03:36:32;;;;;;;;;3.00;3.00;;;;;9.58;61.47;100904.75;5118606;27;45327;-70
2022/11/20 03:38:58;;;;;;;;;2.33;2.33;;;;;9.50;61.50;100890.50;5100220;27;45515;-71
2022/11/20 03:41:25;;;;;;;;;5.67;4.00;;;;;6.91;62.01;100500.22;5118244;27;45946;-71
2022/11/20 03:44:03;;;;;;;;;3.00;3.00;;;;;9.22;62.48;100845.13;5098321;27;45357;-71
2022/11/20 03:46:29;;;;;;;;;4.67;3.33;;;;;9.51;62.17;100908.09;5076734;27;45474;-69
2022/11/20 03:48:54;;;;;;;;;2.33;2.33;;;;;9.46;62.02;100916.47;5095621;27;45708;-70
2022/11/20 03:51:23;;;;;;;;;5.33;4.33;;;;;9.04;62.73;100862.63;5096020;27;45552;-70
2022/11/20 03:53:50;;;;;;;;;4.00;4.00;;;;;9.25;63.00;100900.59;5077754;27;45510;-70
2022/11/20 03:56:17;;;;;;;;;4.67;4.67;;;;;9.31;63.10;100910.66;5096633;27;45719;-70
2022/11/20 03:58:43;;;;;;;;;5.33;5.00;;;;;8.94;63.46;100862.56;5100414;27;45387;-70
2022/11/20 04:01:14;;;;;;;;;5.67;4.00;;;;;9.23;63.22;100921.09;5097080;27;47747;-71
2022/11/20 04:03:41;;;;;;;;;0.00;0.00;;;;;8.93;63.70;100860.03;5103537;27;46163;-70
2022/11/20 04:06:10;;;;;;;;;4.67;4.67;;;;;9.20;63.47;100910.72;5102944;27;45502;-71
2022/11/20 04:08:36;;;;;;;;;4.33;4.00;;;;;9.20;63.71;100894.81;5122495;27;45425;-70
2022/11/20 04:11:14;;;;;;;;;5.67;4.33;;;;;9.20;63.50;100908.06;5121682;27;45423;-69
2022/11/20 04:13:41;;;;;;;;;3.00;3.00;;;;;9.23;63.78;100896.38;5121944;27;45248;-70
2022/11/20 04:16:07;;;;;;;;;6.00;3.67;;;;;9.15;63.46;100870.50;5121940;27;45524;-70
2022/11/20 04:18:33;;;;;;;;;3.00;3.00;;;;;9.36;63.37;100895.19;5122001;27;45532;-68
2022/11/20 04:20:59;;;;;;;;;3.67;3.67;;;;;9.06;63.36;100839.47;5121285;27;46340;-71
2022/11/20 04:23:26;;;;;;;;;5.33;4.00;;;;;9.37;63.49;100886.25;5121372;27;45320;-72
2022/11/20 04:25:52;;;;;;;;;2.00;1.00;;;;;9.30;63.57;100885.09;5122035;27;45439;-71
2022/11/20 04:28:17;;;;;;;;;4.00;4.00;;;;;9.35;63.65;100890.00;5113259;27;45347;-68
2022/11/20 04:30:43;;;;;;;;;5.00;4.00;;;;;9.17;63.38;100860.59;5099939;27;45481;-70
2022/11/20 04:33:08;;;;;;;;;2.67;2.67;;;;;9.40;63.39;100896.59;5100559;27;45494;-72
2022/11/20 04:35:34;;;;;;;;;2.00;2.00;;;;;9.43;63.48;100882.25;5100662;27;45381;-71
2022/11/20 04:37:59;;;;;;;;;4.00;2.33;;;;;9.30;63.14;100871.84;5082074;27;45563;-71
2022/11/20 04:40:25;;;;;;;;;5.00;4.00;;;;;9.17;63.08;100843.84;5081820;27;45373;-71
2022/11/20 04:42:50;;;;;;;;;4.67;4.00;;;;;9.34;63.70;100899.78;5100447;27;45284;-70
2022/11/20 04:45:16;;;;;;;;;2.00;2.00;;;;;9.28;63.61;100886.22;5100404;27;45368;-70
2022/11/20 04:47:41;;;;;;;;;3.33;3.33;;;;;9.27;63.43;100890.69;5100794;27;45411;-70
2022/11/20 04:50:07;;;;;;;;;5.00;4.33;;;;;9.27;63.58;100892.50;5099934;27;45581;-71
2022/11/20 04:52:32;;;;;;;;;3.67;3.33;;;;;9.28;63.69;100881.75;5100312;27;45286;-70
2022/11/20 04:54:58;;;;;;;;;3.00;3.00;;;;;9.27;63.48;100881.88;5100228;27;45548;-69
2022/11/20 04:57:23;;;;;;;;;6.33;3.33;;;;;9.24;63.53;100877.69;5100339;27;45305;-71
2022/11/20 04:59:48;;;;;;;;;2.00;2.00;;;;;9.09;63.88;100849.81;5101954;27;47366;-70
2022/11/20 05:02:14;;;;;;;;;4.33;4.00;;;;;8.90;63.57;100829.34;5120651;27;45507;-70
2022/11/20 05:04:39;;;;;;;;;5.00;3.00;;;;;8.29;63.82;100709.97;5102077;27;45374;-70
2022/11/20 05:07:04;;;;;;;;;2.00;2.00;;;;;9.16;63.92;100877.47;5098853;27;45494;-71
2022/11/20 05:09:30;;;;;;;;;4.33;3.67;;;;;8.69;64.21;100800.19;5099014;27;45691;-71
2022/11/20 05:11:55;;;;;;;;;4.00;4.00;;;;;8.24;64.04;100731.56;5099994;27;45479;-70
2022/11/20 05:14:20;;;;;;;;;7.33;6.33;;;;;9.09;64.84;100873.69;5098887;27;45458;-71
2022/11/20 05:16:46;;;;;;;;;2.00;2.00;;;;;8.52;64.28;100776.94;5100328;27;45235;-70
2022/11/20 05:19:11;;;;;;;;;5.00;5.00;;;;;8.18;64.39;100716.16;5099629;27;46386;-70
2022/11/20 05:21:37;;;;;;;;;7.00;6.00;;;;;8.71;64.54;100808.84;5099689;27;45404;-70
2022/11/20 05:24:02;;;;;;;;;4.67;4.67;;;;;9.12;65.02;100868.09;5101420;27;45355;-71
2022/11/20 05:26:27;;;;;;;;;6.00;4.00;;;;;9.07;64.49;100857.06;5100116;27;45524;-71
2022/11/20 05:28:53;;;;;;;;;8.33;5.00;;;;;9.13;64.19;100877.75;5084105;27;45737;-69
2022/11/20 05:31:22;;;;;;;;;4.33;3.33;;;;;8.93;64.38;100828.22;5079138;27;45343;-71
2022/11/20 05:33:48;;;;;;;;;5.67;4.00;;;;;8.81;63.77;100814.22;5079464;27;45196;-71
2022/11/20 05:36:14;;;;;;;;;4.67;4.00;;;;;8.79;64.26;100811.69;5077936;27;45686;-71
2022/11/20 05:38:41;;;;;;;;;5.00;4.00;;;;;9.08;64.49;100859.59;5097080;27;45591;-69
2022/11/20 05:41:09;;;;;;;;;5.33;5.00;;;;;9.06;64.37;100858.88;5097673;27;45479;-72
2022/11/20 05:43:36;;;;;;;;;6.33;5.00;;;;;9.01;64.03;100852.25;5098799;27;45491;-69
2022/11/20 05:46:02;;;;;;;;;3.33;3.33;;;;;9.00;64.48;100862.03;5098908;27;45651;-71
2022/11/20 05:48:28;;;;;;;;;4.00;4.00;;;;;8.66;64.89;100810.22;5099039;27;46409;-70
2022/11/20 05:50:53;;;;;;;;;6.00;5.00;;;;;8.53;64.50;100779.44;5099193;27;45315;-70
2022/11/20 05:53:19;;;;;;;;;7.67;5.67;;;;;8.36;64.52;100771.25;5099408;27;45455;-70
2022/11/20 05:55:44;;;;;;;;;5.67;4.00;;;;;8.92;64.86;100863.66;5098113;27;45521;-69
2022/11/20 05:58:09;;;;;;;;;5.00;5.00;;;;;8.93;64.66;100865.34;5096557;27;46358;-71
2022/11/20 06:00:35;;;;;;;;;7.33;6.00;;;;;8.74;64.53;100840.41;5077537;28;46412;-70
2022/11/20 06:03:01;;;;;;;;;6.33;5.00;;;;;8.75;64.87;100839.41;5078638;27;45442;-70
2022/11/20 06:05:26;;;;;;;;;5.00;3.67;;;;;8.38;64.67;100785.19;5078882;27;45583;-70
2022/11/20 06:07:51;;;;;;;;;6.67;5.00;;;;;8.72;65.17;100837.03;5091337;27;46619;-69
2022/11/20 06:10:17;;;;;;;;;4.33;4.33;;;;;8.66;65.04;100820.81;5098652;27;45332;-70
2022/11/20 06:12:42;;;;;;;;;7.67;7.00;;;;;8.69;64.93;100813.44;5098716;27;45430;-71
2022/11/20 06:15:08;;;;;;;;;8.00;7.00;;;;;8.87;65.07;100850.81;5099182;27;45261;-71
2022/11/20 06:17:33;;;;;;;;;6.33;5.67;;;;;8.69;65.38;100832.00;5098724;27;46478;-71
2022/11/20 06:19:59;;;;;;;;;7.33;6.33;;;;;8.80;65.05;100833.72;5098883;27;45340;-70
2022/11/20 06:22:24;;;;;;;;;8.00;6.33;;;;;8.82;65.47;100837.94;5098769;27;45319;-72
2022/11/20 06:24:49;;;;;;;;;6.00;6.00;;;;;8.76;65.25;100833.16;5098678;27;45652;-69
2022/11/20 06:27:15;;;;;;;;;6.00;6.00;;;;;8.49;65.05;100790.44;5098249;27;46890;-69
2022/11/20 06:29:41;;;;;;;;;6.00;6.00;;;;;8.29;65.05;100744.41;5080202;27;45399;-71
2022/11/20 06:32:06;;;;;;;;;5.00;5.00;;;;;8.76;64.77;100832.31;5081977;27;45721;-70
2022/11/20 06:34:31;;;;;;;;;5.00;5.00;;;;;8.46;64.84;100783.59;5098744;27;45166;-70
2022/11/20 06:36:57;;;;;;;;;6.33;5.67;;;;;8.84;65.05;100841.31;5098328;27;46235;-70
2022/11/20 06:39:22;;;;;;;;;8.00;8.00;;;;;8.81;65.02;100856.63;5098482;27;45246;-70
2022/11/20 06:41:47;;;;;;;;;5.33;5.33;;;;;8.82;64.93;100831.81;5079778;27;45466;-69
2022/11/20 06:44:13;;;;;;;;;10.00;6.00;;;;;7.18;64.75;100573.75;5098892;27;45429;-70
2022/11/20 06:46:38;;;;;;;;;9.00;9.00;;;;;7.97;64.91;100710.03;5098394;27;45432;-72
2022/11/20 06:49:03;;;;;;;;;8.33;7.00;;;;;8.12;64.82;100739.69;5098390;27;45258;-71
2022/11/20 06:51:29;;;;;;;;;6.33;6.33;;;;;8.72;64.96;100839.69;5098098;27;45224;-71
2022/11/20 06:53:54;;;;;;;;;7.00;7.00;;;;;8.48;64.93;100802.84;5098568;27;45480;-70
2022/11/20 06:56:20;;;;;;;;;7.33;7.00;;;;;7.88;65.15;100709.00;5079796;27;47915;-71
2022/11/20 06:58:45;;;;;;;;;10.33;8.33;;;;;8.66;65.51;100842.03;5098039;27;45462;-68
2022/11/20 07:01:12;;;;;;;;;10.00;10.00;;;;;8.65;65.51;100849.13;5098110;27;45492;-72
2022/11/20 07:03:39;;;;;;;;;7.33;7.33;;;;;8.15;65.04;100763.25;5098318;27;45400;-71
2022/11/20 07:06:05;;;;;;;;;7.67;6.33;;;;;8.57;65.51;100837.47;5098010;27;46735;-70
2022/11/20 07:08:31;;;;;;;;;9.33;9.33;;;;;8.67;65.25;100856.97;5079297;27;45498;-70
2022/11/20 07:10:59;;;;;;;;;10.67;8.33;;;;;8.65;65.87;100862.38;5098151;27;45274;-68
2022/11/20 07:13:25;;;;;;;;;7.33;7.33;;;;;8.69;65.46;100862.97;5098185;27;45351;-70
2022/11/20 07:15:51;;;;;;;;;8.33;7.00;;;;;8.64;64.83;100855.41;5097785;27;46827;-70
2022/11/20 07:18:16;;;;;;;;;12.67;10.00;;;;;7.62;65.23;100673.28;5097676;27;45528;-69
2022/11/20 07:20:41;;;;;;;;;6.33;6.33;;;;;8.47;64.76;100822.38;5098066;27;45224;-72
2022/11/20 07:23:07;;;;;;;;;10.00;10.00;;;;;8.82;64.68;100864.47;5098131;27;45407;-70
2022/11/20 07:25:32;;;;;;;;;7.00;6.00;;;;;8.86;64.66;100858.91;5097699;27;45716;-72
2022/11/20 07:27:59;;;;;;;;;12.00;11.00;;;;;8.72;64.50;100852.94;5097865;27;45496;-71
2022/11/20 07:30:24;;;;;;;;;11.67;9.00;;;;;7.92;64.70;100723.66;5097849;27;45503;-70
2022/11/20 07:32:54;;;;;;;;;11.67;9.67;;;;;8.78;64.78;100846.28;5097318;27;45310;-72
2022/11/20 07:35:20;;;;;;;;;10.00;9.00;;;;;8.74;64.27;100855.47;5079273;27;48806;-70
2022/11/20 07:37:46;;;;;;;;;10.00;7.33;;;;;8.36;64.97;100784.47;5097734;27;45465;-71
2022/11/20 07:40:13;;;;;;;;;8.33;7.33;;;;;8.80;64.70;100850.47;5097715;27;45315;-70
2022/11/20 07:42:38;;;;;;;;;13.00;10.33;;;;;8.17;64.37;100751.56;5101357;27;45961;-71
2022/11/20 07:45:04;;;;;;;;;13.67;12.67;;;;;8.32;64.49;100775.09;5079066;27;47616;-69
2022/11/20 07:47:35;;;;;;;;;10.33;7.33;;;;;8.42;64.22;100786.63;5117278;27;45479;-71
2022/11/20 07:50:00;;;;;;;;;10.00;7.00;;;;;8.79;64.65;100858.56;5118075;27;45332;-70
2022/11/20 07:52:26;;;;;;;;;8.67;8.33;;;;;8.79;64.62;100856.75;5118322;27;45261;-70
2022/11/20 07:54:51;;;;;;;;;11.33;10.33;;;;;7.27;64.57;100587.09;5117918;27;45449;-71
2022/11/20 07:57:16;;;;;;;;;8.00;8.00;;;;;8.56;64.33;100809.31;5113702;27;45444;-70
2022/11/20 07:59:42;;;;;;;;;8.00;8.00;;;;;8.64;64.99;100828.91;5097537;27;45451;-71
2022/11/20 08:02:10;;;;;;;;;8.67;8.67;;;;;8.78;64.59;100835.66;5083586;27;45492;-70
2022/11/20 08:04:35;;;;;;;;;12.33;10.67;;;;;8.33;64.42;100771.47;5118143;27;45312;-71
2022/11/20 08:07:01;;;;;;;;;10.67;7.00;;;;;8.76;64.10;100837.59;5117619;27;45387;-70
2022/11/20 08:09:26;;;;;;;;;7.00;6.67;;;;;8.73;63.81;100817.50;5117750;27;45395;-71
2022/11/20 08:14:36;;;;;;;;;11.67;10.33;;;;;8.53;63.73;100760.06;5111091;27;45357;-71
2022/11/20 08:17:01;;;;;;;;;14.00;11.00;;;;;8.89;63.57;100805.59;5096995;27;46515;-70
2022/11/20 08:19:27;;;;;;;;;12.00;11.33;;;;;8.63;63.29;100773.38;5117674;27;45299;-69
2022/11/20 08:21:52;;;;;;;;;10.00;8.00;;;;;9.11;63.86;100847.88;5118013;27;45152;-71
2022/11/20 08:24:17;;;;;;;;;11.67;9.33;;;;;9.18;63.49;100838.41;5117686;27;45343;-73
2022/11/20 08:26:43;;;;;;;;;12.00;11.00;;;;;9.22;63.15;100853.09;5096332;27;45824;-71
2022/11/20 08:29:08;;;;;;;;;10.00;8.00;;;;;9.24;63.16;100837.88;5096967;27;45472;-72
2022/11/20 08:31:33;;;;;;;;;6.33;6.33;;;;;9.12;63.15;100805.28;5097071;27;45560;-72
2022/11/20 08:33:59;;;;;;;;;14.00;11.67;;;;;8.97;63.27;100776.59;5096757;27;46372;-69
2022/11/20 08:36:24;;;;;;;;;9.33;9.33;;;;;9.24;63.50;100848.50;5110632;27;45462;-70
2022/11/20 08:38:52;;;;;;;;;7.00;6.00;;;;;8.45;62.95;100699.78;5099068;27;45363;-71
2022/11/20 08:41:25;;;;;;;;;9.67;9.67;;;;;9.29;63.57;100814.44;5100302;27;46128;-70
2022/11/20 08:43:52;;;;;;;;;12.33;10.00;;;;;9.09;63.28;100784.34;5097729;27;46739;-70
2022/11/20 08:46:18;;;;;;;;;12.00;12.00;;;;;9.20;63.47;100794.00;5081681;27;45589;-72
2022/11/20 08:48:44;;;;;;;;;12.00;9.00;;;;;9.08;63.28;100764.09;5101195;27;45392;-72
2022/11/20 08:51:11;;;;;;;;;12.00;8.33;;;;;9.36;63.38;100807.63;5083922;27;45393;-72
2022/11/20 08:53:37;;;;;;;;;12.33;9.33;;;;;9.42;63.51;100806.25;5117437;27;45589;-70
2022/11/20 08:56:02;;;;;;;;;6.33;6.00;;;;;9.45;63.41;100817.44;5102228;27;46640;-72
2022/11/20 08:58:28;;;;;;;;;13.00;10.00;;;;;9.28;64.19;100780.09;5113613;27;45535;-72
2022/11/20 09:00:53;;;;;;;;;11.33;10.00;;;;;9.51;64.54;100820.53;5113917;27;45232;-70
2022/11/20 09:03:19;;;;;;;;;9.67;9.67;;;;;9.47;65.00;100800.53;5100275;27;46334;-71
2022/11/20 09:05:44;;;;;;;;;10.33;10.33;;;;;9.33;65.27;100777.88;5100948;27;45166;-72
2022/11/20 09:08:10;;;;;;;;;11.00;11.00;;;;;9.36;66.06;100782.91;5081548;27;45574;-71
2022/11/20 09:10:36;;;;;;;;;13.00;9.33;;;;;9.11;65.26;100732.00;5099775;27;45166;-70
2022/11/20 09:13:01;;;;;;;;;13.00;10.67;;;;;9.54;65.41;100797.19;5099477;27;46671;-72
2022/11/20 09:15:27;;;;;;;;;10.33;8.33;;;;;9.38;65.15;100749.94;5099540;27;45675;-72
2022/11/20 09:17:54;;;;;;;;;11.00;10.00;;;;;8.82;65.19;100660.34;5100048;27;45489;-71
2022/11/20 09:20:19;;;;;;;;;11.67;11.67;;;;;9.46;65.10;100757.25;5100054;27;45438;-72
2022/11/20 09:22:45;;;;;;;;;16.00;14.67;;;;;9.53;65.42;100773.44;5099360;27;46498;-74
2022/11/20 09:25:13;;;;;;;;;10.33;10.33;;;;;9.48;66.20;100775.69;5099241;27;45514;-71
2022/11/20 09:27:38;;;;;;;;;16.00;12.67;;;;;9.36;65.78;100746.59;5099659;27;45405;-70
2022/11/20 09:30:04;;;;;;;;;15.00;13.67;;;;;9.30;66.37;100747.13;5099925;27;45500;-71
2022/11/20 09:32:30;;;;;;;;;13.00;13.00;;;;;9.18;66.47;100734.09;5087608;27;46386;-72
2022/11/20 09:34:55;;;;;;;;;13.67;13.67;;;;;9.06;67.12;100704.22;5102067;27;45477;-72
2022/11/20 09:37:20;;;;;;;;;15.33;13.00;;;;;9.06;67.54;100686.50;5081290;27;45317;-71
2022/11/20 09:39:46;;;;;;;;;12.67;11.67;;;;;9.11;67.32;100684.25;5098280;27;45457;-73
2022/11/20 09:42:50;;;;;;;;;12.67;12.67;;;;;9.49;67.12;100740.19;5116040;27;45999;-71
2022/11/20 09:45:38;;;;;;;;;16.33;13.33;;;;;9.30;67.54;100710.00;5100911;27;45275;-71
2022/11/20 09:48:31;;;;;;;;;12.67;12.67;;;;;9.39;68.19;100738.34;5097285;27;45699;-71
2022/11/20 09:51:13;;;;;;;;;14.67;13.33;;;;;9.44;68.02;100738.81;5098570;27;45487;-72
2022/11/20 09:54:07;;;;;;;;;13.67;11.33;;;;;9.48;68.26;100739.38;5080431;27;46872;-72
2022/11/20 09:56:38;;;;;;;;;13.67;12.33;;;;;9.49;68.32;100724.28;5079917;27;45481;-71
2022/11/20 09:59:08;;;;;;;;;16.00;14.00;;;;;9.60;68.12;100738.25;5099085;27;45337;-72
2022/11/20 10:01:36;;;;;;;;;12.67;11.67;;;;;9.62;67.82;100738.97;5102180;27;45227;-70
2022/11/20 10:04:13;;;;;;;;;15.33;12.33;;;;;9.65;68.08;100740.50;5104826;27;46888;-71
2022/11/20 10:06:45;;;;;;;;;14.67;14.33;;;;;9.67;68.09;100733.25;5095966;27;46684;-72
2022/11/20 10:09:10;;;;;;;;;14.00;12.00;;;;;9.69;67.93;100725.97;5099897;27;45481;-69
2022/11/20 10:11:56;;;;;;;;;12.00;11.00;;;;;9.57;68.12;100713.81;5091965;27;45541;-72
2022/11/20 10:14:51;;;;;;;;;11.67;11.00;;;;;9.75;68.50;100730.72;5081825;27;48581;-72
2022/11/20 10:17:51;;;;;;;;;13.67;10.33;;;;;9.68;68.48;100719.84;5054160;27;46262;-70
2022/11/20 10:20:22;;;;;;;;;10.33;10.33;;;;;9.07;69.22;100613.91;5113740;27;45316;-71
2022/11/20 10:23:12;;;;;;;;;11.67;11.67;;;;;9.76;69.91;100716.47;5100522;27;45294;-70
2022/11/20 10:25:43;;;;;;;;;13.67;11.00;;;;;9.74;69.84;100713.13;5098437;27;46216;-74
2022/11/20 10:28:34;;;;;;;;;13.00;12.33;;;;;8.85;70.95;100555.84;5098217;27;45489;-77
2022/11/20 10:31:04;;;;;;;;;12.00;12.00;;;;;9.71;71.04;100703.63;5113646;27;45370;-71
2022/11/20 10:33:36;;;;;;;;;12.67;12.67;;;;;9.77;71.23;100708.38;5098368;27;45481;-73
2022/11/20 10:36:21;;;;;;;;;12.00;11.67;;;;;9.63;71.11;100657.53;5079347;27;47899;-71
2022/11/20 10:38:54;;;;;;;;;13.67;11.67;;;;;9.29;71.50;100596.06;5097540;27;45470;-70
2022/11/20 10:41:50;;;;;;;;;11.00;8.67;;;;;9.43;71.27;100588.53;5098003;27;45284;-73
2022/11/20 10:47:18;;;;;;;;;11.33;8.67;;;;;10.01;71.30;100657.50;5107319;27;46171;-72
2022/11/20 10:49:53;;;;;;;;;11.00;9.67;;;;;10.23;71.38;100682.94;5085923;27;45347;-72
2022/11/20 10:52:51;;;;;;;;;10.67;8.67;;;;;10.36;70.78;100682.59;5097886;27;45481;-72
2022/11/20 10:55:55;;;;;;;;;8.33;8.33;;;;;10.42;70.92;100679.38;5079737;27;45530;-72
2022/11/20 10:58:39;;;;;;;;;7.33;6.33;;;;;10.41;70.43;100675.06;5097486;27;46718;-73
2022/11/20 11:01:06;;;;;;;;;10.00;9.33;;;;;9.53;70.95;100526.63;5098000;27;45458;-72
2022/11/20 11:03:32;;;;;;;;;7.00;7.00;;;;;9.91;71.72;100603.53;5098162;27;45394;-73
2022/11/20 11:06:12;;;;;;;;;9.00;9.00;;;;;10.34;72.77;100673.94;5097983;27;45280;-74
2022/11/20 11:08:39;;;;;;;;;13.67;13.67;;;;;10.26;72.32;100656.06;5097710;27;48382;-72
2022/11/20 11:11:24;;;;;;;;;9.67;8.00;;;;;9.66;73.16;100556.38;5096704;27;45517;-76
2022/11/20 11:13:50;;;;;;;;;10.67;7.33;;;;;9.34;73.43;100504.44;5101677;27;45553;-72
2022/11/20 11:16:24;;;;;;;;;7.33;7.33;;;;;9.87;73.46;100562.34;5101975;27;46387;-74
2022/11/20 11:18:50;;;;;;;;;11.00;6.67;;;;;10.31;73.47;100642.34;5104488;27;45845;-78
2022/11/20 11:21:25;;;;;;;;;4.67;4.67;;;;;10.27;74.08;100635.66;5100219;27;45518;-72
2022/11/20 11:24:00;;;;;;;;;4.00;4.00;;;;;10.34;73.47;100634.91;5096531;27;45304;-81
2022/11/20 11:26:26;;;;;;;;;7.00;6.33;;;;;10.09;73.88;100579.72;5099358;27;45458;-73
2022/11/20 11:28:56;;;;;;;;;7.00;6.00;;;;;10.40;74.32;100630.81;5113402;27;46578;-75
2022/11/20 11:31:32;;;;;;;;;4.00;3.00;;;;;10.39;73.62;100625.66;5097267;27;45525;-72
2022/11/20 11:34:15;;;;;;;;;4.67;4.00;;;;;9.97;74.25;100557.81;5097231;27;45418;-71
2022/11/20 11:36:41;;;;;;;;;3.33;3.33;;;;;10.27;73.99;100622.34;5116180;27;45480;-72
2022/11/20 11:39:14;;;;;;;;;7.00;5.33;;;;;10.11;74.19;100617.63;5117109;27;46260;-73
2022/11/20 11:41:40;;;;;;;;;3.00;3.00;;;;;10.13;74.33;100628.94;5117028;27;45565;-75
2022/11/20 11:47:26;;;;;;;;;6.67;5.33;;;;;10.09;74.12;100627.56;5103436;27;45541;-73
2022/11/20 11:50:08;;;;;;;;;5.00;5.00;;;;;9.98;74.09;100583.38;5078709;27;48684;-71